St Andrews, United Kingdom
Current Conditions -  °F | °C
As of 8:50 PM on Saturday 25 Oct 2014 (Local Time) from EGQL Reporting Station
Light Rain Light Rain  
Wind Chill: 52°   Ceiling: 3000
Heat Index: 52°   Visibility: 6mi
Dew Point: 46°   Wind: 24mph
Humidity: 82%   Direction: 250°WSW
Pressure: 29.62"   Gusts: NA
Location:  56.34°N, 2.8°W
Report Text: EGQL 251950Z 25021KT 9999 -RA BKN030 11/08 Q1003 BLU
Loading
Personal Weather Stations






























Interactive Weather Map
Tropical Storm Tracking
New forecast layout! Learn more

10-Day Weather Forecast

Advertisements
Track Severe Weather on mobile